sensor_id;sensor_type;location;lat;lon;timestamp;pressure;altitude;pressure_sealevel;temperature;humidity
63194;BME280;49289;51.670;5.624;2023-05-22T00:01:42;101548.84;;;26.01;59.08
63194;BME280;49289;51.670;5.624;2023-05-22T00:03:30;101599.58;;;26.17;59.05
63194;BME280;49289;51.670;5.624;2023-05-22T00:05:19;101589.06;;;26.18;59.15
63194;BME280;49289;51.670;5.624;2023-05-22T00:07:06;101563.41;;;26.01;59.42
63194;BME280;49289;51.670;5.624;2023-05-22T00:08:53;101560.52;;;25.90;59.51
63194;BME280;49289;51.670;5.624;2023-05-22T00:10:40;101583.87;;;25.85;59.53
63194;BME280;49289;51.670;5.624;2023-05-22T00:12:27;101602.33;;;25.88;59.63
63194;BME280;49289;51.670;5.624;2023-05-22T00:14:14;101477.43;;;25.62;59.77
63194;BME280;49289;51.670;5.624;2023-05-22T00:16:01;101581.39;;;25.77;59.55
63194;BME280;49289;51.670;5.624;2023-05-22T00:17:48;101661.12;;;26.07;59.42
63194;BME280;49289;51.670;5.624;2023-05-22T00:19:35;101669.96;;;26.21;59.08
63194;BME280;49289;51.670;5.624;2023-05-22T00:21:22;101649.59;;;26.25;59.37
63194;BME280;49289;51.670;5.624;2023-05-22T00:23:09;101626.72;;;26.23;59.44
63194;BME280;49289;51.670;5.624;2023-05-22T00:24:56;101511.53;;;25.93;59.35
63194;BME280;49289;51.670;5.624;2023-05-22T00:26:43;101594.67;;;25.96;59.61
63194;BME280;49289;51.670;5.624;2023-05-22T00:28:30;101633.80;;;26.12;59.37
63194;BME280;49289;51.670;5.624;2023-05-22T00:30:18;101625.73;;;26.18;59.19
63194;BME280;49289;51.670;5.624;2023-05-22T00:32:05;101613.09;;;26.13;59.26
63194;BME280;49289;51.670;5.624;2023-05-22T00:33:52;101617.14;;;26.29;59.09
63194;BME280;49289;51.670;5.624;2023-05-22T00:35:39;101602.46;;;26.22;59.23
63194;BME280;49289;51.670;5.624;2023-05-22T00:37:26;101596.08;;;26.31;59.43
63194;BME280;49289;51.670;5.624;2023-05-22T00:39:13;101563.00;;;26.16;59.53
63194;BME280;49289;51.670;5.624;2023-05-22T00:41:00;101603.37;;;26.32;59.53
63194;BME280;49289;51.670;5.624;2023-05-22T00:42:47;101532.11;;;26.11;59.06
63194;BME280;49289;51.670;5.624;2023-05-22T00:44:35;101492.31;;;25.80;59.62
63194;BME280;49289;51.670;5.624;2023-05-22T00:46:23;101567.62;;;26.00;59.58
63194;BME280;49289;51.670;5.624;2023-05-22T00:48:11;101574.96;;;25.98;59.90
63194;BME280;49289;51.670;5.624;2023-05-22T00:49:59;101595.48;;;26.09;59.51
63194;BME280;49289;51.670;5.624;2023-05-22T00:51:47;101588.30;;;26.11;59.44
63194;BME280;49289;51.670;5.624;2023-05-22T00:53:35;101561.48;;;26.00;59.67
63194;BME280;49289;51.670;5.624;2023-05-22T00:55:23;101487.94;;;25.73;60.07
63194;BME280;49289;51.670;5.624;2023-05-22T00:57:11;101547.01;;;25.77;60.15
63194;BME280;49289;51.670;5.624;2023-05-22T00:58:58;101516.01;;;25.62;60.39
63194;BME280;49289;51.670;5.624;2023-05-22T01:00:46;101462.55;;;25.37;60.79
63194;BME280;49289;51.670;5.624;2023-05-22T01:02:34;101380.38;;;24.91;62.26
63194;BME280;49289;51.670;5.624;2023-05-22T01:04:23;101425.29;;;24.81;63.44
63194;BME280;49289;51.670;5.624;2023-05-22T01:06:11;101493.86;;;24.82;64.36
63194;BME280;49289;51.670;5.624;2023-05-22T01:07:58;101499.24;;;24.82;64.09
63194;BME280;49289;51.670;5.624;2023-05-22T01:09:45;101478.41;;;24.58;64.87
63194;BME280;49289;51.670;5.624;2023-05-22T01:11:33;101470.42;;;24.60;64.86
63194;BME280;49289;51.670;5.624;2023-05-22T01:13:23;101506.50;;;24.66;64.76
63194;BME280;49289;51.670;5.624;2023-05-22T01:15:12;101581.11;;;24.80;64.98
63194;BME280;49289;51.670;5.624;2023-05-22T01:17:00;101591.44;;;24.80;64.89
63194;BME280;49289;51.670;5.624;2023-05-22T01:18:49;101593.16;;;24.91;64.78
63194;BME280;49289;51.670;5.624;2023-05-22T01:20:37;101611.50;;;25.02;64.17
63194;BME280;49289;51.670;5.624;2023-05-22T01:22:25;101575.67;;;24.93;63.92
63194;BME280;49289;51.670;5.624;2023-05-22T01:24:32;101559.10;;;24.97;64.21
63194;BME280;49289;51.670;5.624;2023-05-22T01:26:45;101578.07;;;25.02;64.24
63194;BME280;49289;51.670;5.624;2023-05-22T01:28:47;101566.66;;;24.98;64.45
63194;BME280;49289;51.670;5.624;2023-05-22T01:30:49;101529.56;;;24.84;64.14
63194;BME280;49289;51.670;5.624;2023-05-22T01:32:36;101519.47;;;24.83;64.00
63194;BME280;49289;51.670;5.624;2023-05-22T01:34:23;101483.59;;;24.62;64.09
63194;BME280;49289;51.670;5.624;2023-05-22T01:36:12;101556.42;;;24.85;63.80
63194;BME280;49289;51.670;5.624;2023-05-22T01:37:59;101566.81;;;24.87;63.72
63194;BME280;49289;51.670;5.624;2023-05-22T01:39:46;101502.72;;;24.68;64.24
63194;BME280;49289;51.670;5.624;2023-05-22T01:41:34;101541.45;;;24.73;64.50
63194;BME280;49289;51.670;5.624;2023-05-22T01:43:22;101528.31;;;24.68;64.72
63194;BME280;49289;51.670;5.624;2023-05-22T01:45:10;101552.96;;;24.72;64.79
63194;BME280;49289;51.670;5.624;2023-05-22T01:46:58;101540.00;;;24.65;64.90
63194;BME280;49289;51.670;5.624;2023-05-22T01:48:45;101522.51;;;24.53;64.87
63194;BME280;49289;51.670;5.624;2023-05-22T01:50:32;101564.33;;;24.66;65.37
63194;BME280;49289;51.670;5.624;2023-05-22T01:52:22;101518.94;;;24.47;65.16
63194;BME280;49289;51.670;5.624;2023-05-22T01:54:09;101479.98;;;24.34;65.79
63194;BME280;49289;51.670;5.624;2023-05-22T01:55:58;101507.24;;;24.34;66.07
63194;BME280;49289;51.670;5.624;2023-05-22T01:57:49;101602.78;;;24.58;65.88
63194;BME280;49289;51.670;5.624;2023-05-22T01:59:35;101580.30;;;24.63;65.04
63194;BME280;49289;51.670;5.624;2023-05-22T02:01:22;101553.89;;;24.53;64.83
63194;BME280;49289;51.670;5.624;2023-05-22T02:03:11;101463.71;;;24.33;64.37
63194;BME280;49289;51.670;5.624;2023-05-22T02:04:57;101447.37;;;24.21;65.12
63194;BME280;49289;51.670;5.624;2023-05-22T02:06:44;101494.01;;;24.19;65.41
63194;BME280;49289;51.670;5.624;2023-05-22T02:08:33;101422.27;;;23.94;65.30
63194;BME280;49289;51.670;5.624;2023-05-22T02:10:22;101391.46;;;23.64;65.79
63194;BME280;49289;51.670;5.624;2023-05-22T02:12:11;101492.14;;;23.77;65.95
63194;BME280;49289;51.670;5.624;2023-05-22T02:13:59;101529.33;;;23.92;65.85
63194;BME280;49289;51.670;5.624;2023-05-22T02:15:49;101593.96;;;24.04;65.38
63194;BME280;49289;51.670;5.624;2023-05-22T02:17:39;101466.91;;;23.78;65.32
63194;BME280;49289;51.670;5.624;2023-05-22T02:19:27;101463.11;;;23.64;66.15
63194;BME280;49289;51.670;5.624;2023-05-22T02:21:16;101491.57;;;23.62;66.60
63194;BME280;49289;51.670;5.624;2023-05-22T02:23:04;101497.36;;;23.61;66.27
63194;BME280;49289;51.670;5.624;2023-05-22T02:24:52;101534.73;;;23.70;66.08
63194;BME280;49289;51.670;5.624;2023-05-22T02:26:39;101540.95;;;23.66;66.38
63194;BME280;49289;51.670;5.624;2023-05-22T02:28:26;101599.36;;;23.84;66.11
63194;BME280;49289;51.670;5.624;2023-05-22T02:30:13;101613.84;;;23.90;65.80
63194;BME280;49289;51.670;5.624;2023-05-22T02:32:02;101604.09;;;24.07;64.95
63194;BME280;49289;51.670;5.624;2023-05-22T02:33:49;101511.42;;;23.76;65.60
63194;BME280;49289;51.670;5.624;2023-05-22T02:35:37;101368.90;;;23.22;66.36
63194;BME280;49289;51.670;5.624;2023-05-22T02:37:24;101369.94;;;23.10;67.15
63194;BME280;49289;51.670;5.624;2023-05-22T02:39:11;101390.80;;;23.06;67.99
63194;BME280;49289;51.670;5.624;2023-05-22T02:40:58;101520.75;;;23.24;67.86
63194;BME280;49289;51.670;5.624;2023-05-22T02:42:45;101512.86;;;23.30;67.59
63194;BME280;49289;51.670;5.624;2023-05-22T02:44:33;101518.23;;;23.29;67.68
63194;BME280;49289;51.670;5.624;2023-05-22T02:46:22;101556.50;;;23.31;67.60
63194;BME280;49289;51.670;5.624;2023-05-22T02:48:10;101576.63;;;23.43;67.10
63194;BME280;49289;51.670;5.624;2023-05-22T02:49:57;101595.09;;;23.63;66.45
63194;BME280;49289;51.670;5.624;2023-05-22T02:51:44;101584.95;;;23.64;66.52
63194;BME280;49289;51.670;5.624;2023-05-22T02:53:31;101522.34;;;23.44;66.69
63194;BME280;49289;51.670;5.624;2023-05-22T02:55:19;101448.39;;;23.27;67.11
63194;BME280;49289;51.670;5.624;2023-05-22T02:57:06;101538.15;;;23.37;67.28
63194;BME280;49289;51.670;5.624;2023-05-22T02:58:53;101547.97;;;23.44;66.85
63194;BME280;49289;51.670;5.624;2023-05-22T03:00:40;101582.25;;;23.58;66.60
63194;BME280;49289;51.670;5.624;2023-05-22T03:02:27;101575.72;;;23.69;66.13
63194;BME280;49289;51.670;5.624;2023-05-22T03:04:16;101565.98;;;23.72;66.00
63194;BME280;49289;51.670;5.624;2023-05-22T03:06:04;101542.45;;;23.68;65.77
63194;BME280;49289;51.670;5.624;2023-05-22T03:07:51;101473.50;;;23.44;66.29
63194;BME280;49289;51.670;5.624;2023-05-22T03:09:38;101417.41;;;23.24;66.68
63194;BME280;49289;51.670;5.624;2023-05-22T03:11:26;101484.64;;;23.28;67.04
63194;BME280;49289;51.670;5.624;2023-05-22T03:13:14;101466.80;;;23.16;67.26
63194;BME280;49289;51.670;5.624;2023-05-22T03:15:02;101509.27;;;23.24;67.31
63194;BME280;49289;51.670;5.624;2023-05-22T03:16:50;101481.53;;;23.15;67.36
63194;BME280;49289;51.670;5.624;2023-05-22T03:18:38;101497.78;;;23.12;67.60
63194;BME280;49289;51.670;5.624;2023-05-22T03:20:25;101546.59;;;23.21;67.28
63194;BME280;49289;51.670;5.624;2023-05-22T03:22:13;101586.34;;;23.43;66.74
63194;BME280;49289;51.670;5.624;2023-05-22T03:24:00;101569.75;;;23.46;66.46
63194;BME280;49289;51.670;5.624;2023-05-22T03:25:47;101512.70;;;23.30;65.96
63194;BME280;49289;51.670;5.624;2023-05-22T03:27:34;101433.64;;;22.98;67.71
63194;BME280;49289;51.670;5.624;2023-05-22T03:29:21;101449.72;;;22.96;68.10
63194;BME280;49289;51.670;5.624;2023-05-22T03:31:09;101502.81;;;23.03;67.82
63194;BME280;49289;51.670;5.624;2023-05-22T03:32:57;101528.43;;;23.12;67.67
63194;BME280;49289;51.670;5.624;2023-05-22T03:34:44;101482.36;;;22.98;67.38
63194;BME280;49289;51.670;5.624;2023-05-22T03:36:31;101547.60;;;23.16;66.96
63194;BME280;49289;51.670;5.624;2023-05-22T03:38:18;101560.02;;;23.28;67.21
63194;BME280;49289;51.670;5.624;2023-05-22T03:40:06;101544.77;;;23.31;66.90
63194;BME280;49289;51.670;5.624;2023-05-22T03:41:54;101544.35;;;23.33;66.80
63194;BME280;49289;51.670;5.624;2023-05-22T03:43:42;101521.57;;;23.32;66.59
63194;BME280;49289;51.670;5.624;2023-05-22T03:45:30;101495.38;;;23.25;66.73
63194;BME280;49289;51.670;5.624;2023-05-22T03:47:19;101513.04;;;23.27;66.88
63194;BME280;49289;51.670;5.624;2023-05-22T03:49:06;101471.51;;;23.03;67.31
63194;BME280;49289;51.670;5.624;2023-05-22T03:50:54;101541.82;;;23.20;67.33
63194;BME280;49289;51.670;5.624;2023-05-22T03:52:43;101488.58;;;23.10;67.16
63194;BME280;49289;51.670;5.624;2023-05-22T03:54:30;101521.89;;;23.20;67.65
63194;BME280;49289;51.670;5.624;2023-05-22T03:56:17;101557.25;;;23.33;67.39
63194;BME280;49289;51.670;5.624;2023-05-22T03:58:04;101586.84;;;23.45;67.14
63194;BME280;49289;51.670;5.624;2023-05-22T03:59:53;101541.33;;;23.40;66.68
63194;BME280;49289;51.670;5.624;2023-05-22T04:01:41;101435.06;;;22.99;68.12
63194;BME280;49289;51.670;5.624;2023-05-22T04:03:29;101434.58;;;22.85;68.79
63194;BME280;49289;51.670;5.624;2023-05-22T04:05:18;101299.75;;;22.49;69.47
63194;BME280;49289;51.670;5.624;2023-05-22T04:07:05;101356.84;;;22.42;71.16
63194;BME280;49289;51.670;5.624;2023-05-22T04:08:53;101309.91;;;22.13;71.72
63194;BME280;49289;51.670;5.624;2023-05-22T04:10:41;101349.53;;;22.14;72.84
63194;BME280;49289;51.670;5.624;2023-05-22T04:12:29;101320.11;;;21.89;73.46
63194;BME280;49289;51.670;5.624;2023-05-22T04:14:17;101325.92;;;21.81;75.30
63194;BME280;49289;51.670;5.624;2023-05-22T04:16:04;101283.54;;;21.64;75.68
63194;BME280;49289;51.670;5.624;2023-05-22T04:17:51;101460.78;;;22.01;74.17
63194;BME280;49289;51.670;5.624;2023-05-22T04:19:38;101561.36;;;22.24;73.64
63194;BME280;49289;51.670;5.624;2023-05-22T04:21:26;101501.86;;;22.16;72.84
63194;BME280;49289;51.670;5.624;2023-05-22T04:23:14;101621.29;;;22.54;72.29
63194;BME280;49289;51.670;5.624;2023-05-22T04:25:01;101526.50;;;22.28;72.15
63194;BME280;49289;51.670;5.624;2023-05-22T04:26:48;101648.90;;;22.70;71.50
63194;BME280;49289;51.670;5.624;2023-05-22T04:28:35;101606.55;;;22.65;71.40
63194;BME280;49289;51.670;5.624;2023-05-22T04:30:22;101624.23;;;22.78;70.89
63194;BME280;49289;51.670;5.624;2023-05-22T04:32:10;101649.84;;;22.87;70.92
63194;BME280;49289;51.670;5.624;2023-05-22T04:33:57;101663.68;;;22.97;70.43
63194;BME280;49289;51.670;5.624;2023-05-22T04:35:44;101684.76;;;23.14;69.73
63194;BME280;49289;51.670;5.624;2023-05-22T04:37:31;101651.27;;;23.18;69.55
63194;BME280;49289;51.670;5.624;2023-05-22T04:39:18;101610.41;;;23.16;69.09
63194;BME280;49289;51.670;5.624;2023-05-22T04:41:05;101561.33;;;23.12;68.74
63194;BME280;49289;51.670;5.624;2023-05-22T04:42:52;101534.87;;;23.05;68.86
63194;BME280;49289;51.670;5.624;2023-05-22T04:44:39;101583.61;;;23.22;68.01
63194;BME280;49289;51.670;5.624;2023-05-22T04:46:26;101567.95;;;23.12;68.08
63194;BME280;49289;51.670;5.624;2023-05-22T04:48:13;101457.09;;;22.83;68.71
63194;BME280;49289;51.670;5.624;2023-05-22T04:50:01;101449.17;;;22.76;68.74
63194;BME280;49289;51.670;5.624;2023-05-22T04:51:49;101411.44;;;22.63;68.82
63194;BME280;49289;51.670;5.624;2023-05-22T04:53:37;101496.02;;;22.67;68.90
63194;BME280;49289;51.670;5.624;2023-05-22T04:55:25;101487.41;;;22.69;68.60
63194;BME280;49289;51.670;5.624;2023-05-22T04:57:12;101420.83;;;22.41;68.44
63194;BME280;49289;51.670;5.624;2023-05-22T04:59:00;101435.53;;;22.29;69.38
63194;BME280;49289;51.670;5.624;2023-05-22T05:00:49;101509.86;;;22.53;69.26
63194;BME280;49289;51.670;5.624;2023-05-22T05:02:36;101468.82;;;22.37;68.68
63194;BME280;49289;51.670;5.624;2023-05-22T05:04:24;101444.64;;;22.26;69.61
63194;BME280;49289;51.670;5.624;2023-05-22T05:06:12;101522.92;;;22.36;70.22
63194;BME280;49289;51.670;5.624;2023-05-22T05:08:01;101629.25;;;22.59;69.16
63194;BME280;49289;51.670;5.624;2023-05-22T05:09:48;101595.00;;;22.65;68.95
63194;BME280;49289;51.670;5.624;2023-05-22T05:11:35;101584.13;;;22.69;68.61
63194;BME280;49289;51.670;5.624;2023-05-22T05:13:23;101546.19;;;22.62;68.22
63194;BME280;49289;51.670;5.624;2023-05-22T05:15:12;101453.45;;;22.19;69.43
63194;BME280;49289;51.670;5.624;2023-05-22T05:17:00;101539.55;;;22.46;69.06
63194;BME280;49289;51.670;5.624;2023-05-22T05:18:48;101542.22;;;22.44;69.21
63194;BME280;49289;51.670;5.624;2023-05-22T05:20:36;101678.55;;;22.85;68.34
63194;BME280;49289;51.670;5.624;2023-05-22T05:22:24;101663.09;;;22.94;67.82
63194;BME280;49289;51.670;5.624;2023-05-22T05:24:12;101569.16;;;22.84;67.14
63194;BME280;49289;51.670;5.624;2023-05-22T05:25:59;101564.06;;;22.81;67.31
63194;BME280;49289;51.670;5.624;2023-05-22T05:27:46;101503.50;;;22.48;68.82
63194;BME280;49289;51.670;5.624;2023-05-22T05:29:33;101428.67;;;22.28;69.17
63194;BME280;49289;51.670;5.624;2023-05-22T05:31:22;101584.79;;;22.64;68.45
63194;BME280;49289;51.670;5.624;2023-05-22T05:33:09;101497.84;;;22.39;68.78
63194;BME280;49289;51.670;5.624;2023-05-22T05:34:56;101608.30;;;22.65;68.26
63194;BME280;49289;51.670;5.624;2023-05-22T05:38:44;101638.22;;;22.95;67.06
63194;BME280;49289;51.670;5.624;2023-05-22T05:40:32;101625.59;;;22.95;66.56
63194;BME280;49289;51.670;5.624;2023-05-22T05:42:20;101532.59;;;22.80;66.85
63194;BME280;49289;51.670;5.624;2023-05-22T05:44:08;101561.63;;;22.89;66.62
63194;BME280;49289;51.670;5.624;2023-05-22T05:45:56;101528.74;;;22.71;67.73
63194;BME280;49289;51.670;5.624;2023-05-22T05:47:45;101577.62;;;22.78;67.91
63194;BME280;49289;51.670;5.624;2023-05-22T05:49:32;101523.16;;;22.52;68.23
63194;BME280;49289;51.670;5.624;2023-05-22T05:51:20;101539.41;;;22.60;68.42
63194;BME280;49289;51.670;5.624;2023-05-22T05:53:08;101560.15;;;22.58;68.70
63194;BME280;49289;51.670;5.624;2023-05-22T05:54:56;101594.41;;;22.63;68.87
63194;BME280;49289;51.670;5.624;2023-05-22T05:56:44;101643.36;;;22.82;68.27
63194;BME280;49289;51.670;5.624;2023-05-22T05:58:32;101639.96;;;22.85;68.01
63194;BME280;49289;51.670;5.624;2023-05-22T06:00:22;101613.02;;;22.90;67.73
63194;BME280;49289;51.670;5.624;2023-05-22T06:02:10;101559.13;;;22.78;67.60
63194;BME280;49289;51.670;5.624;2023-05-22T06:03:57;101543.55;;;22.64;68.37
63194;BME280;49289;51.670;5.624;2023-05-22T06:05:45;101621.97;;;22.76;68.28
63194;BME280;49289;51.670;5.624;2023-05-22T06:07:33;101659.75;;;22.98;68.38
63194;BME280;49289;51.670;5.624;2023-05-22T06:09:21;101644.81;;;23.07;67.78
63194;BME280;49289;51.670;5.624;2023-05-22T06:11:08;101510.63;;;22.82;67.75
63194;BME280;49289;51.670;5.624;2023-05-22T06:12:55;101595.45;;;22.90;68.22
63194;BME280;49289;51.670;5.624;2023-05-22T06:14:42;101647.75;;;23.13;66.92
63194;BME280;49289;51.670;5.624;2023-05-22T06:16:30;101623.05;;;23.13;67.09
63194;BME280;49289;51.670;5.624;2023-05-22T06:18:18;101636.78;;;23.22;66.86
63194;BME280;49289;51.670;5.624;2023-05-22T06:20:06;101612.00;;;23.22;66.19
63194;BME280;49289;51.670;5.624;2023-05-22T06:21:53;101645.37;;;23.37;66.81
63194;BME280;49289;51.670;5.624;2023-05-22T06:23:40;101671.88;;;23.48;66.98
63194;BME280;49289;51.670;5.624;2023-05-22T06:25:27;101627.64;;;23.47;66.37
63194;BME280;49289;51.670;5.624;2023-05-22T06:27:14;101659.45;;;23.65;65.40
63194;BME280;49289;51.670;5.624;2023-05-22T06:29:01;101567.98;;;23.48;64.93
63194;BME280;49289;51.670;5.624;2023-05-22T06:30:48;101573.18;;;23.50;65.19
63194;BME280;49289;51.670;5.624;2023-05-22T06:32:35;101596.13;;;23.54;65.15
63194;BME280;49289;51.670;5.624;2023-05-22T06:34:22;101577.37;;;23.50;64.90
63194;BME280;49289;51.670;5.624;2023-05-22T06:36:09;101607.63;;;23.58;64.91
63194;BME280;49289;51.670;5.624;2023-05-22T06:37:56;101481.54;;;23.13;65.42
63194;BME280;49289;51.670;5.624;2023-05-22T06:39:43;101486.19;;;22.82;67.07
63194;BME280;49289;51.670;5.624;2023-05-22T06:41:30;101593.11;;;22.99;67.74
63194;BME280;49289;51.670;5.624;2023-05-22T06:43:17;101643.48;;;23.14;67.74
63194;BME280;49289;51.670;5.624;2023-05-22T06:45:04;101483.48;;;22.77;67.80
63194;BME280;49289;51.670;5.624;2023-05-22T06:46:51;101683.33;;;23.09;68.74
63194;BME280;49289;51.670;5.624;2023-05-22T06:48:39;101730.90;;;23.41;67.42
63194;BME280;49289;51.670;5.624;2023-05-22T06:50:28;101632.17;;;23.21;67.82
63194;BME280;49289;51.670;5.624;2023-05-22T06:52:16;101714.09;;;23.65;66.06
63194;BME280;49289;51.670;5.624;2023-05-22T06:54:03;101644.56;;;23.50;66.29
63194;BME280;49289;51.670;5.624;2023-05-22T06:55:50;101652.49;;;23.63;65.79
63194;BME280;49289;51.670;5.624;2023-05-22T06:57:37;101642.27;;;23.67;65.77
63194;BME280;49289;51.670;5.624;2023-05-22T06:59:24;101651.83;;;23.87;65.09
63194;BME280;49289;51.670;5.624;2023-05-22T07:01:11;101645.95;;;23.90;65.08
63194;BME280;49289;51.670;5.624;2023-05-22T07:02:58;101684.01;;;24.08;64.99
63194;BME280;49289;51.670;5.624;2023-05-22T07:04:45;101662.94;;;24.15;64.42
63194;BME280;49289;51.670;5.624;2023-05-22T07:06:32;101642.66;;;24.23;64.22
63194;BME280;49289;51.670;5.624;2023-05-22T07:08:19;101661.42;;;24.37;64.12
63194;BME280;49289;51.670;5.624;2023-05-22T07:10:06;101575.70;;;24.25;63.51
63194;BME280;49289;51.670;5.624;2023-05-22T07:11:53;101672.81;;;24.42;64.21
63194;BME280;49289;51.670;5.624;2023-05-22T07:13:40;101549.59;;;24.07;64.50
63194;BME280;49289;51.670;5.624;2023-05-22T07:15:28;101631.84;;;24.00;65.89
63194;BME280;49289;51.670;5.624;2023-05-22T07:17:17;101653.97;;;24.14;65.01
63194;BME280;49289;51.670;5.624;2023-05-22T07:19:04;101710.23;;;24.42;64.15
63194;BME280;49289;51.670;5.624;2023-05-22T07:20:53;101711.72;;;24.68;64.04
63194;BME280;49289;51.670;5.624;2023-05-22T07:22:40;101601.92;;;24.47;63.10
63194;BME280;49289;51.670;5.624;2023-05-22T07:24:28;101414.42;;;23.49;66.77
63194;BME280;49289;51.670;5.624;2023-05-22T07:26:15;101620.05;;;23.86;66.14
63194;BME280;49289;51.670;5.624;2023-05-22T07:28:03;101621.89;;;23.72;66.68
63194;BME280;49289;51.670;5.624;2023-05-22T07:29:51;101724.27;;;24.26;65.37
63194;BME280;49289;51.670;5.624;2023-05-22T07:31:39;101720.98;;;24.38;65.31
63194;BME280;49289;51.670;5.624;2023-05-22T07:33:27;101725.07;;;24.57;64.98
63194;BME280;49289;51.670;5.624;2023-05-22T07:35:16;101649.88;;;24.56;64.67
63194;BME280;49289;51.670;5.624;2023-05-22T07:37:06;101667.07;;;24.82;63.51
63194;BME280;49289;51.670;5.624;2023-05-22T07:38:50;101561.04;;;24.29;65.92
63194;BME280;49289;51.670;5.624;2023-05-22T07:40:37;101687.80;;;24.67;65.00
63194;BME280;49289;51.670;5.624;2023-05-22T07:42:24;101757.97;;;25.29;63.27
63194;BME280;49289;51.670;5.624;2023-05-22T07:44:11;101616.41;;;25.13;62.44
63194;BME280;49289;51.670;5.624;2023-05-22T07:45:58;101591.64;;;24.74;63.55
63194;BME280;49289;51.670;5.624;2023-05-22T07:47:45;101550.81;;;24.49;63.85
63194;BME280;49289;51.670;5.624;2023-05-22T07:49:32;101755.05;;;24.90;63.84
63194;BME280;49289;51.670;5.624;2023-05-22T07:51:19;101638.66;;;25.13;62.96
63194;BME280;49289;51.670;5.624;2023-05-22T07:53:06;101667.03;;;24.93;63.61
63194;BME280;49289;51.670;5.624;2023-05-22T07:54:53;101653.04;;;24.89;64.11
63194;BME280;49289;51.670;5.624;2023-05-22T07:56:40;101724.69;;;25.30;63.02
63194;BME280;49289;51.670;5.624;2023-05-22T07:58:27;101517.28;;;24.44;64.61
63194;BME280;49289;51.670;5.624;2023-05-22T08:00:16;101735.58;;;25.35;62.65
63194;BME280;49289;51.670;5.624;2023-05-22T08:02:05;101516.36;;;24.71;63.66
63194;BME280;49289;51.670;5.624;2023-05-22T08:03:52;101641.38;;;24.82;63.91
63194;BME280;49289;51.670;5.624;2023-05-22T08:05:41;101755.27;;;25.48;62.44
63194;BME280;49289;51.670;5.624;2023-05-22T08:07:29;101648.88;;;25.23;62.34
63194;BME280;49289;51.670;5.624;2023-05-22T08:09:17;101653.70;;;25.39;61.58
63194;BME280;49289;51.670;5.624;2023-05-22T08:11:05;101678.55;;;25.57;61.03
63194;BME280;49289;51.670;5.624;2023-05-22T08:12:53;101694.08;;;25.97;60.39
63194;BME280;49289;51.670;5.624;2023-05-22T08:14:40;101605.77;;;25.70;60.41
63194;BME280;49289;51.670;5.624;2023-05-22T08:16:27;101715.66;;;25.84;60.49
63194;BME280;49289;51.670;5.624;2023-05-22T08:18:14;101704.25;;;26.17;59.63
63194;BME280;49289;51.670;5.624;2023-05-22T08:20:01;101660.81;;;26.29;58.91
63194;BME280;49289;51.670;5.624;2023-05-22T08:21:48;101661.64;;;26.49;58.55
63194;BME280;49289;51.670;5.624;2023-05-22T08:23:35;101569.08;;;26.15;58.65
63194;BME280;49289;51.670;5.624;2023-05-22T08:25:22;101685.38;;;26.39;58.87
63194;BME280;49289;51.670;5.624;2023-05-22T08:27:09;101659.38;;;26.61;58.34
63194;BME280;49289;51.670;5.624;2023-05-22T08:28:56;101660.42;;;26.74;57.86
63194;BME280;49289;51.670;5.624;2023-05-22T08:30:43;101629.07;;;26.83;57.71
63194;BME280;49289;51.670;5.624;2023-05-22T08:32:30;101624.95;;;27.02;57.21
63194;BME280;49289;51.670;5.624;2023-05-22T08:34:17;101573.73;;;26.51;57.37
63194;BME280;49289;51.670;5.624;2023-05-22T08:36:04;101568.25;;;26.20;57.63
63194;BME280;49289;51.670;5.624;2023-05-22T08:37:51;101649.12;;;26.47;57.66
63194;BME280;49289;51.670;5.624;2023-05-22T08:39:38;101614.98;;;26.36;57.88
63194;BME280;49289;51.670;5.624;2023-05-22T08:41:25;101658.14;;;26.47;57.97
63194;BME280;49289;51.670;5.624;2023-05-22T08:43:12;101618.80;;;26.70;57.32
63194;BME280;49289;51.670;5.624;2023-05-22T08:44:59;101617.41;;;25.74;59.42
63194;BME280;49289;51.670;5.624;2023-05-22T08:46:47;101602.02;;;25.60;60.07
63194;BME280;49289;51.670;5.624;2023-05-22T08:48:35;101615.06;;;25.59;60.96
63194;BME280;49289;51.670;5.624;2023-05-22T08:50:24;101611.92;;;25.41;62.37
63194;BME280;49289;51.670;5.624;2023-05-22T08:52:13;101783.95;;;26.05;61.77
63194;BME280;49289;51.670;5.624;2023-05-22T08:53:59;101692.86;;;26.79;59.71
63194;BME280;49289;51.670;5.624;2023-05-22T08:55:46;101572.47;;;25.96;60.21
63194;BME280;49289;51.670;5.624;2023-05-22T08:57:33;101641.41;;;25.72;61.39
63194;BME280;49289;51.670;5.624;2023-05-22T08:59:20;101669.84;;;25.23;63.39
63194;BME280;49289;51.670;5.624;2023-05-22T09:01:07;101781.06;;;25.86;62.91
63194;BME280;49289;51.670;5.624;2023-05-22T09:02:55;101634.67;;;25.84;61.65
63194;BME280;49289;51.670;5.624;2023-05-22T09:04:44;101573.23;;;25.35;62.85
63194;BME280;49289;51.670;5.624;2023-05-22T09:06:32;101675.45;;;25.45;62.49
63194;BME280;49289;51.670;5.624;2023-05-22T09:08:19;101749.75;;;26.45;60.73
63194;BME280;49289;51.670;5.624;2023-05-22T09:10:06;101600.97;;;25.71;60.72
63194;BME280;49289;51.670;5.624;2023-05-22T09:11:53;101628.77;;;26.00;60.35
63194;BME280;49289;51.670;5.624;2023-05-22T09:13:40;101740.91;;;26.20;61.39
63194;BME280;49289;51.670;5.624;2023-05-22T09:15:27;101736.59;;;27.15;59.46
63194;BME280;49289;51.670;5.624;2023-05-22T09:17:14;101517.28;;;26.67;58.43
63194;BME280;49289;51.670;5.624;2023-05-22T09:19:01;101653.25;;;26.04;60.49
63194;BME280;49289;51.670;5.624;2023-05-22T09:20:49;101609.70;;;25.98;61.00
63194;BME280;49289;51.670;5.624;2023-05-22T09:22:39;101663.07;;;26.30;60.39
63194;BME280;49289;51.670;5.624;2023-05-22T09:24:26;101671.57;;;26.13;60.73
63194;BME280;49289;51.670;5.624;2023-05-22T09:26:13;101601.05;;;26.24;60.37